sensor_id;sensor_type;location;lat;lon;timestamp;P1;durP1;ratioP1;P2;durP2;ratioP2
38615;SDS011;24370;51.986;4.666;2023-06-22T00:01:09;15.93;;;8.50;;
38615;SDS011;24370;51.986;4.666;2023-06-22T00:03:35;16.67;;;8.70;;
38615;SDS011;24370;51.986;4.666;2023-06-22T00:06:00;13.88;;;8.50;;
38615;SDS011;24370;51.986;4.666;2023-06-22T00:08:26;16.25;;;8.82;;
38615;SDS011;24370;51.986;4.666;2023-06-22T00:10:51;14.02;;;8.70;;
38615;SDS011;24370;51.986;4.666;2023-06-22T00:13:16;16.90;;;9.10;;
38615;SDS011;24370;51.986;4.666;2023-06-22T00:15:43;15.65;;;8.70;;
38615;SDS011;24370;51.986;4.666;2023-06-22T00:18:09;16.17;;;9.68;;
38615;SDS011;24370;51.986;4.666;2023-06-22T00:20:35;17.67;;;9.07;;
38615;SDS011;24370;51.986;4.666;2023-06-22T00:23:04;17.27;;;9.38;;
38615;SDS011;24370;51.986;4.666;2023-06-22T00:25:37;16.40;;;9.10;;
38615;SDS011;24370;51.986;4.666;2023-06-22T00:28:06;13.82;;;9.10;;
38615;SDS011;24370;51.986;4.666;2023-06-22T00:30:33;17.88;;;8.93;;
38615;SDS011;24370;51.986;4.666;2023-06-22T00:32:58;17.17;;;9.73;;
38615;SDS011;24370;51.986;4.666;2023-06-22T00:35:24;16.63;;;8.63;;
38615;SDS011;24370;51.986;4.666;2023-06-22T00:37:57;16.67;;;9.88;;
38615;SDS011;24370;51.986;4.666;2023-06-22T00:40:30;16.98;;;10.35;;
38615;SDS011;24370;51.986;4.666;2023-06-22T00:42:57;16.85;;;9.32;;
38615;SDS011;24370;51.986;4.666;2023-06-22T00:45:23;15.68;;;9.82;;
38615;SDS011;24370;51.986;4.666;2023-06-22T00:47:50;16.50;;;8.93;;
38615;SDS011;24370;51.986;4.666;2023-06-22T00:50:21;18.92;;;10.30;;
38615;SDS011;24370;51.986;4.666;2023-06-22T00:52:48;18.13;;;10.00;;
38615;SDS011;24370;51.986;4.666;2023-06-22T00:55:17;16.55;;;9.88;;
38615;SDS011;24370;51.986;4.666;2023-06-22T00:57:46;16.77;;;9.68;;
38615;SDS011;24370;51.986;4.666;2023-06-22T01:00:13;19.23;;;9.77;;
38615;SDS011;24370;51.986;4.666;2023-06-22T01:02:39;18.95;;;9.48;;
38615;SDS011;24370;51.986;4.666;2023-06-22T01:05:06;14.45;;;8.85;;
38615;SDS011;24370;51.986;4.666;2023-06-22T01:07:35;18.15;;;10.52;;
38615;SDS011;24370;51.986;4.666;2023-06-22T01:10:25;16.88;;;9.32;;
38615;SDS011;24370;51.986;4.666;2023-06-22T01:15:45;16.70;;;8.80;;
38615;SDS011;24370;51.986;4.666;2023-06-22T01:18:18;16.00;;;9.38;;
38615;SDS011;24370;51.986;4.666;2023-06-22T01:20:46;20.27;;;9.80;;
38615;SDS011;24370;51.986;4.666;2023-06-22T01:29:01;15.65;;;9.57;;
38615;SDS011;24370;51.986;4.666;2023-06-22T01:31:29;15.82;;;9.27;;
38615;SDS011;24370;51.986;4.666;2023-06-22T01:33:59;19.33;;;10.45;;
38615;SDS011;24370;51.986;4.666;2023-06-22T01:36:26;19.08;;;10.40;;
38615;SDS011;24370;51.986;4.666;2023-06-22T01:38:53;16.23;;;9.10;;
38615;SDS011;24370;51.986;4.666;2023-06-22T01:41:19;16.92;;;10.32;;
38615;SDS011;24370;51.986;4.666;2023-06-22T01:43:46;22.08;;;11.13;;
38615;SDS011;24370;51.986;4.666;2023-06-22T01:46:12;19.58;;;10.95;;
38615;SDS011;24370;51.986;4.666;2023-06-22T01:48:39;18.45;;;10.98;;
38615;SDS011;24370;51.986;4.666;2023-06-22T01:51:05;20.63;;;11.60;;
38615;SDS011;24370;51.986;4.666;2023-06-22T01:53:30;21.20;;;10.85;;
38615;SDS011;24370;51.986;4.666;2023-06-22T01:55:56;20.23;;;10.35;;
38615;SDS011;24370;51.986;4.666;2023-06-22T01:58:23;18.38;;;11.00;;
38615;SDS011;24370;51.986;4.666;2023-06-22T02:00:54;18.50;;;10.68;;
38615;SDS011;24370;51.986;4.666;2023-06-22T02:03:32;17.73;;;10.20;;
38615;SDS011;24370;51.986;4.666;2023-06-22T02:06:10;20.48;;;11.52;;
38615;SDS011;24370;51.986;4.666;2023-06-22T02:08:53;22.90;;;12.23;;
38615;SDS011;24370;51.986;4.666;2023-06-22T02:11:22;22.90;;;11.77;;
38615;SDS011;24370;51.986;4.666;2023-06-22T02:13:50;21.55;;;11.30;;
38615;SDS011;24370;51.986;4.666;2023-06-22T02:16:16;23.73;;;11.85;;
38615;SDS011;24370;51.986;4.666;2023-06-22T02:18:49;20.63;;;12.13;;
38615;SDS011;24370;51.986;4.666;2023-06-22T02:21:16;23.52;;;13.00;;
38615;SDS011;24370;51.986;4.666;2023-06-22T02:23:45;20.60;;;11.45;;
38615;SDS011;24370;51.986;4.666;2023-06-22T02:26:11;22.65;;;12.60;;
38615;SDS011;24370;51.986;4.666;2023-06-22T02:28:37;20.45;;;11.60;;
38615;SDS011;24370;51.986;4.666;2023-06-22T02:31:02;22.05;;;12.95;;
38615;SDS011;24370;51.986;4.666;2023-06-22T02:33:27;27.83;;;13.50;;
38615;SDS011;24370;51.986;4.666;2023-06-22T02:35:53;22.02;;;12.57;;
38615;SDS011;24370;51.986;4.666;2023-06-22T02:38:19;24.52;;;12.75;;
38615;SDS011;24370;51.986;4.666;2023-06-22T02:40:45;25.45;;;13.52;;
38615;SDS011;24370;51.986;4.666;2023-06-22T02:43:10;24.42;;;14.43;;
38615;SDS011;24370;51.986;4.666;2023-06-22T02:45:36;23.40;;;12.98;;
38615;SDS011;24370;51.986;4.666;2023-06-22T02:48:01;25.58;;;14.07;;
38615;SDS011;24370;51.986;4.666;2023-06-22T02:50:27;30.50;;;15.60;;
38615;SDS011;24370;51.986;4.666;2023-06-22T02:52:52;33.60;;;15.40;;
38615;SDS011;24370;51.986;4.666;2023-06-22T02:55:18;24.52;;;13.18;;
38615;SDS011;24370;51.986;4.666;2023-06-22T02:57:43;24.38;;;13.52;;
38615;SDS011;24370;51.986;4.666;2023-06-22T03:00:10;26.10;;;13.80;;
38615;SDS011;24370;51.986;4.666;2023-06-22T03:02:45;24.65;;;14.15;;
38615;SDS011;24370;51.986;4.666;2023-06-22T03:05:12;24.10;;;13.40;;
38615;SDS011;24370;51.986;4.666;2023-06-22T03:07:41;22.80;;;12.02;;
38615;SDS011;24370;51.986;4.666;2023-06-22T03:10:11;24.88;;;13.95;;
38615;SDS011;24370;51.986;4.666;2023-06-22T03:12:38;23.33;;;13.07;;
38615;SDS011;24370;51.986;4.666;2023-06-22T03:15:07;26.02;;;14.05;;
38615;SDS011;24370;51.986;4.666;2023-06-22T03:17:34;26.92;;;13.25;;
38615;SDS011;24370;51.986;4.666;2023-06-22T03:20:04;22.80;;;12.65;;
38615;SDS011;24370;51.986;4.666;2023-06-22T03:22:39;22.50;;;12.45;;
38615;SDS011;24370;51.986;4.666;2023-06-22T03:25:07;22.05;;;12.65;;
38615;SDS011;24370;51.986;4.666;2023-06-22T03:27:38;24.55;;;12.73;;
38615;SDS011;24370;51.986;4.666;2023-06-22T03:30:04;24.52;;;13.75;;
38615;SDS011;24370;51.986;4.666;2023-06-22T03:32:30;23.23;;;13.02;;
38615;SDS011;24370;51.986;4.666;2023-06-22T03:34:56;24.15;;;12.50;;
38615;SDS011;24370;51.986;4.666;2023-06-22T03:37:23;26.30;;;13.65;;
38615;SDS011;24370;51.986;4.666;2023-06-22T03:39:52;22.40;;;13.10;;
38615;SDS011;24370;51.986;4.666;2023-06-22T03:42:18;21.42;;;12.43;;
38615;SDS011;24370;51.986;4.666;2023-06-22T03:44:43;20.38;;;12.90;;
38615;SDS011;24370;51.986;4.666;2023-06-22T03:47:09;22.85;;;13.13;;
38615;SDS011;24370;51.986;4.666;2023-06-22T03:49:34;23.00;;;12.32;;
38615;SDS011;24370;51.986;4.666;2023-06-22T03:52:00;22.90;;;12.13;;
38615;SDS011;24370;51.986;4.666;2023-06-22T03:54:27;21.98;;;12.52;;
38615;SDS011;24370;51.986;4.666;2023-06-22T03:56:53;20.45;;;12.30;;
38615;SDS011;24370;51.986;4.666;2023-06-22T03:59:19;20.77;;;12.57;;
38615;SDS011;24370;51.986;4.666;2023-06-22T04:01:44;22.90;;;12.65;;
38615;SDS011;24370;51.986;4.666;2023-06-22T04:04:09;20.08;;;11.15;;
38615;SDS011;24370;51.986;4.666;2023-06-22T04:06:35;22.85;;;12.27;;
38615;SDS011;24370;51.986;4.666;2023-06-22T04:09:00;27.40;;;12.63;;
38615;SDS011;24370;51.986;4.666;2023-06-22T04:11:26;25.77;;;13.40;;
38615;SDS011;24370;51.986;4.666;2023-06-22T04:13:51;26.58;;;12.60;;
38615;SDS011;24370;51.986;4.666;2023-06-22T04:16:17;22.30;;;12.68;;
38615;SDS011;24370;51.986;4.666;2023-06-22T04:18:42;25.85;;;13.43;;
38615;SDS011;24370;51.986;4.666;2023-06-22T04:21:09;23.30;;;13.95;;
38615;SDS011;24370;51.986;4.666;2023-06-22T04:23:35;25.55;;;13.48;;
38615;SDS011;24370;51.986;4.666;2023-06-22T04:26:01;23.50;;;12.50;;
38615;SDS011;24370;51.986;4.666;2023-06-22T04:28:26;25.02;;;13.38;;
38615;SDS011;24370;51.986;4.666;2023-06-22T04:30:51;24.85;;;14.15;;
38615;SDS011;24370;51.986;4.666;2023-06-22T04:33:17;27.17;;;14.73;;
38615;SDS011;24370;51.986;4.666;2023-06-22T04:35:44;24.15;;;14.02;;
38615;SDS011;24370;51.986;4.666;2023-06-22T04:38:11;21.23;;;12.52;;
38615;SDS011;24370;51.986;4.666;2023-06-22T04:40:38;23.77;;;13.40;;
38615;SDS011;24370;51.986;4.666;2023-06-22T04:43:04;23.15;;;14.35;;
38615;SDS011;24370;51.986;4.666;2023-06-22T04:45:31;27.38;;;13.77;;
38615;SDS011;24370;51.986;4.666;2023-06-22T04:47:57;22.58;;;14.43;;
38615;SDS011;24370;51.986;4.666;2023-06-22T04:50:23;24.23;;;14.20;;
38615;SDS011;24370;51.986;4.666;2023-06-22T04:52:49;22.02;;;13.80;;
38615;SDS011;24370;51.986;4.666;2023-06-22T04:55:15;21.60;;;13.05;;
38615;SDS011;24370;51.986;4.666;2023-06-22T04:57:43;21.27;;;11.73;;
38615;SDS011;24370;51.986;4.666;2023-06-22T05:00:16;18.95;;;11.60;;
38615;SDS011;24370;51.986;4.666;2023-06-22T05:02:43;21.08;;;10.98;;
38615;SDS011;24370;51.986;4.666;2023-06-22T05:05:10;19.02;;;10.73;;
38615;SDS011;24370;51.986;4.666;2023-06-22T05:07:38;16.77;;;10.93;;
38615;SDS011;24370;51.986;4.666;2023-06-22T05:10:08;19.88;;;10.60;;
38615;SDS011;24370;51.986;4.666;2023-06-22T05:12:37;18.90;;;10.93;;
38615;SDS011;24370;51.986;4.666;2023-06-22T05:15:03;18.15;;;11.18;;
38615;SDS011;24370;51.986;4.666;2023-06-22T05:17:29;17.10;;;10.13;;
38615;SDS011;24370;51.986;4.666;2023-06-22T05:19:55;17.05;;;10.77;;
38615;SDS011;24370;51.986;4.666;2023-06-22T05:22:21;21.90;;;10.00;;
38615;SDS011;24370;51.986;4.666;2023-06-22T05:24:46;14.48;;;9.65;;
38615;SDS011;24370;51.986;4.666;2023-06-22T05:27:12;14.82;;;8.70;;
38615;SDS011;24370;51.986;4.666;2023-06-22T05:29:38;15.55;;;8.65;;
38615;SDS011;24370;51.986;4.666;2023-06-22T05:32:04;13.73;;;7.97;;
38615;SDS011;24370;51.986;4.666;2023-06-22T05:34:30;12.68;;;7.38;;
38615;SDS011;24370;51.986;4.666;2023-06-22T05:36:55;11.23;;;6.93;;
38615;SDS011;24370;51.986;4.666;2023-06-22T05:39:23;12.35;;;7.15;;
38615;SDS011;24370;51.986;4.666;2023-06-22T05:41:49;9.18;;;5.85;;
38615;SDS011;24370;51.986;4.666;2023-06-22T05:44:14;11.38;;;6.10;;
38615;SDS011;24370;51.986;4.666;2023-06-22T05:46:43;9.95;;;5.78;;
38615;SDS011;24370;51.986;4.666;2023-06-22T05:49:14;9.23;;;5.78;;
38615;SDS011;24370;51.986;4.666;2023-06-22T05:51:40;11.23;;;6.15;;
38615;SDS011;24370;51.986;4.666;2023-06-22T05:54:06;9.07;;;5.88;;
38615;SDS011;24370;51.986;4.666;2023-06-22T05:56:33;7.63;;;5.57;;
38615;SDS011;24370;51.986;4.666;2023-06-22T05:59:00;7.85;;;5.90;;
38615;SDS011;24370;51.986;4.666;2023-06-22T06:01:25;8.68;;;6.30;;
38615;SDS011;24370;51.986;4.666;2023-06-22T06:03:51;9.63;;;5.72;;
38615;SDS011;24370;51.986;4.666;2023-06-22T06:06:18;10.90;;;5.82;;
38615;SDS011;24370;51.986;4.666;2023-06-22T06:08:45;9.15;;;5.82;;
38615;SDS011;24370;51.986;4.666;2023-06-22T06:11:10;9.70;;;5.28;;
38615;SDS011;24370;51.986;4.666;2023-06-22T06:13:36;12.10;;;5.53;;
38615;SDS011;24370;51.986;4.666;2023-06-22T06:16:01;9.52;;;5.50;;
38615;SDS011;24370;51.986;4.666;2023-06-22T06:18:27;10.45;;;5.57;;
38615;SDS011;24370;51.986;4.666;2023-06-22T06:20:52;9.75;;;5.65;;
38615;SDS011;24370;51.986;4.666;2023-06-22T06:23:18;10.00;;;5.18;;
38615;SDS011;24370;51.986;4.666;2023-06-22T06:25:43;8.07;;;5.82;;
38615;SDS011;24370;51.986;4.666;2023-06-22T06:28:09;13.38;;;6.53;;
38615;SDS011;24370;51.986;4.666;2023-06-22T06:30:37;10.43;;;6.45;;
38615;SDS011;24370;51.986;4.666;2023-06-22T06:33:03;12.18;;;6.82;;
38615;SDS011;24370;51.986;4.666;2023-06-22T06:35:33;9.35;;;6.53;;
38615;SDS011;24370;51.986;4.666;2023-06-22T06:38:02;10.55;;;6.57;;
38615;SDS011;24370;51.986;4.666;2023-06-22T06:40:28;15.18;;;7.07;;
38615;SDS011;24370;51.986;4.666;2023-06-22T06:42:53;12.60;;;6.25;;
38615;SDS011;24370;51.986;4.666;2023-06-22T06:45:19;9.70;;;6.28;;
38615;SDS011;24370;51.986;4.666;2023-06-22T06:47:52;11.20;;;6.30;;
38615;SDS011;24370;51.986;4.666;2023-06-22T06:50:18;13.52;;;6.30;;
38615;SDS011;24370;51.986;4.666;2023-06-22T06:52:44;10.20;;;6.15;;
38615;SDS011;24370;51.986;4.666;2023-06-22T06:55:09;9.30;;;6.22;;
38615;SDS011;24370;51.986;4.666;2023-06-22T06:57:40;11.43;;;6.57;;
38615;SDS011;24370;51.986;4.666;2023-06-22T07:00:11;9.82;;;6.40;;
38615;SDS011;24370;51.986;4.666;2023-06-22T07:02:44;9.13;;;5.78;;
38615;SDS011;24370;51.986;4.666;2023-06-22T07:05:12;12.88;;;5.78;;
38615;SDS011;24370;51.986;4.666;2023-06-22T07:07:39;10.93;;;4.93;;
38615;SDS011;24370;51.986;4.666;2023-06-22T07:10:06;7.25;;;4.80;;
38615;SDS011;24370;51.986;4.666;2023-06-22T07:12:32;5.75;;;4.45;;
38615;SDS011;24370;51.986;4.666;2023-06-22T07:15:16;7.28;;;4.55;;
38615;SDS011;24370;51.986;4.666;2023-06-22T07:17:41;8.95;;;4.05;;
38615;SDS011;24370;51.986;4.666;2023-06-22T07:20:07;7.20;;;4.45;;
38615;SDS011;24370;51.986;4.666;2023-06-22T07:22:43;5.40;;;4.00;;
38615;SDS011;24370;51.986;4.666;2023-06-22T07:25:09;7.55;;;3.40;;
38615;SDS011;24370;51.986;4.666;2023-06-22T07:27:43;5.93;;;3.72;;
38615;SDS011;24370;51.986;4.666;2023-06-22T07:30:11;4.72;;;3.20;;
38615;SDS011;24370;51.986;4.666;2023-06-22T07:32:37;3.75;;;2.45;;
38615;SDS011;24370;51.986;4.666;2023-06-22T07:35:02;4.80;;;3.22;;
38615;SDS011;24370;51.986;4.666;2023-06-22T07:37:29;4.10;;;2.63;;
38615;SDS011;24370;51.986;4.666;2023-06-22T07:39:57;4.15;;;2.30;;
38615;SDS011;24370;51.986;4.666;2023-06-22T07:42:26;2.80;;;1.77;;
38615;SDS011;24370;51.986;4.666;2023-06-22T07:44:52;3.22;;;2.15;;
38615;SDS011;24370;51.986;4.666;2023-06-22T07:47:17;4.07;;;2.20;;
38615;SDS011;24370;51.986;4.666;2023-06-22T07:49:44;3.28;;;2.10;;
38615;SDS011;24370;51.986;4.666;2023-06-22T07:52:10;5.15;;;2.30;;
38615;SDS011;24370;51.986;4.666;2023-06-22T07:54:36;3.33;;;2.22;;
38615;SDS011;24370;51.986;4.666;2023-06-22T07:57:01;4.18;;;2.67;;
38615;SDS011;24370;51.986;4.666;2023-06-22T07:59:27;4.80;;;3.60;;
38615;SDS011;24370;51.986;4.666;2023-06-22T08:01:52;4.90;;;3.70;;
38615;SDS011;24370;51.986;4.666;2023-06-22T08:04:18;6.32;;;4.80;;
38615;SDS011;24370;51.986;4.666;2023-06-22T08:06:44;7.68;;;4.57;;
38615;SDS011;24370;51.986;4.666;2023-06-22T08:09:09;7.63;;;5.35;;
38615;SDS011;24370;51.986;4.666;2023-06-22T08:11:37;6.30;;;4.70;;
38615;SDS011;24370;51.986;4.666;2023-06-22T08:14:02;7.65;;;5.53;;
38615;SDS011;24370;51.986;4.666;2023-06-22T08:16:28;11.13;;;6.60;;
38615;SDS011;24370;51.986;4.666;2023-06-22T08:18:54;8.70;;;6.30;;
38615;SDS011;24370;51.986;4.666;2023-06-22T08:21:19;13.02;;;6.53;;
38615;SDS011;24370;51.986;4.666;2023-06-22T08:23:45;10.75;;;7.00;;
38615;SDS011;24370;51.986;4.666;2023-06-22T08:26:10;11.75;;;6.65;;
38615;SDS011;24370;51.986;4.666;2023-06-22T08:28:36;10.73;;;7.22;;
38615;SDS011;24370;51.986;4.666;2023-06-22T08:31:02;14.02;;;8.48;;
38615;SDS011;24370;51.986;4.666;2023-06-22T08:33:28;12.48;;;7.28;;
38615;SDS011;24370;51.986;4.666;2023-06-22T08:35:54;11.35;;;7.80;;
38615;SDS011;24370;51.986;4.666;2023-06-22T08:38:21;10.02;;;8.02;;
38615;SDS011;24370;51.986;4.666;2023-06-22T08:40:47;10.43;;;8.43;;
38615;SDS011;24370;51.986;4.666;2023-06-22T08:43:13;13.13;;;8.25;;
38615;SDS011;24370;51.986;4.666;2023-06-22T08:45:39;12.80;;;8.32;;
38615;SDS011;24370;51.986;4.666;2023-06-22T08:48:04;12.32;;;7.95;;
38615;SDS011;24370;51.986;4.666;2023-06-22T08:50:30;12.90;;;8.80;;
38615;SDS011;24370;51.986;4.666;2023-06-22T08:52:55;13.65;;;9.70;;
38615;SDS011;24370;51.986;4.666;2023-06-22T08:55:21;15.80;;;9.05;;
38615;SDS011;24370;51.986;4.666;2023-06-22T08:57:46;13.70;;;9.20;;
38615;SDS011;24370;51.986;4.666;2023-06-22T09:00:11;10.95;;;8.30;;
38615;SDS011;24370;51.986;4.666;2023-06-22T09:02:41;12.18;;;7.85;;
38615;SDS011;24370;51.986;4.666;2023-06-22T09:05:07;14.75;;;8.82;;
38615;SDS011;24370;51.986;4.666;2023-06-22T09:07:33;14.27;;;9.43;;
38615;SDS011;24370;51.986;4.666;2023-06-22T09:09:59;12.52;;;7.75;;
38615;SDS011;24370;51.986;4.666;2023-06-22T09:12:25;12.00;;;7.95;;
38615;SDS011;24370;51.986;4.666;2023-06-22T09:14:52;15.90;;;8.90;;
38615;SDS011;24370;51.986;4.666;2023-06-22T09:17:18;11.48;;;8.27;;
38615;SDS011;24370;51.986;4.666;2023-06-22T09:19:43;11.32;;;7.72;;
38615;SDS011;24370;51.986;4.666;2023-06-22T09:22:08;11.48;;;7.45;;
38615;SDS011;24370;51.986;4.666;2023-06-22T09:24:36;9.15;;;6.75;;
38615;SDS011;24370;51.986;4.666;2023-06-22T09:27:02;9.48;;;6.75;;
38615;SDS011;24370;51.986;4.666;2023-06-22T09:29:27;8.60;;;6.32;;
38615;SDS011;24370;51.986;4.666;2023-06-22T09:31:53;10.35;;;6.95;;
38615;SDS011;24370;51.986;4.666;2023-06-22T09:34:21;9.77;;;6.80;;
38615;SDS011;24370;51.986;4.666;2023-06-22T09:36:46;11.65;;;7.43;;
38615;SDS011;24370;51.986;4.666;2023-06-22T09:39:12;9.57;;;6.13;;
38615;SDS011;24370;51.986;4.666;2023-06-22T09:41:37;9.43;;;5.65;;
38615;SDS011;24370;51.986;4.666;2023-06-22T09:44:03;10.52;;;6.22;;
38615;SDS011;24370;51.986;4.666;2023-06-22T09:46:28;7.55;;;4.53;;
38615;SDS011;24370;51.986;4.666;2023-06-22T09:48:54;8.77;;;6.00;;
38615;SDS011;24370;51.986;4.666;2023-06-22T09:51:19;9.40;;;5.30;;
38615;SDS011;24370;51.986;4.666;2023-06-22T09:53:46;8.25;;;5.15;;
38615;SDS011;24370;51.986;4.666;2023-06-22T09:56:12;10.43;;;6.22;;
38615;SDS011;24370;51.986;4.666;2023-06-22T09:58:40;10.68;;;5.80;;
38615;SDS011;24370;51.986;4.666;2023-06-22T10:01:07;10.27;;;6.20;;
38615;SDS011;24370;51.986;4.666;2023-06-22T10:03:33;7.93;;;5.63;;
38615;SDS011;24370;51.986;4.666;2023-06-22T10:05:58;7.88;;;5.80;;
38615;SDS011;24370;51.986;4.666;2023-06-22T10:08:24;9.02;;;5.20;;
38615;SDS011;24370;51.986;4.666;2023-06-22T10:10:49;12.07;;;5.97;;
38615;SDS011;24370;51.986;4.666;2023-06-22T10:13:14;9.27;;;5.85;;
38615;SDS011;24370;51.986;4.666;2023-06-22T10:15:40;11.35;;;6.88;;
38615;SDS011;24370;51.986;4.666;2023-06-22T10:18:06;10.52;;;6.55;;
38615;SDS011;24370;51.986;4.666;2023-06-22T10:20:32;8.13;;;6.03;;
38615;SDS011;24370;51.986;4.666;2023-06-22T10:22:58;7.15;;;5.18;;
38615;SDS011;24370;51.986;4.666;2023-06-22T10:25:23;8.68;;;6.00;;
38615;SDS011;24370;51.986;4.666;2023-06-22T10:27:49;10.50;;;6.15;;
38615;SDS011;24370;51.986;4.666;2023-06-22T10:30:14;7.10;;;5.32;;
38615;SDS011;24370;51.986;4.666;2023-06-22T10:32:40;9.82;;;5.68;;
38615;SDS011;24370;51.986;4.666;2023-06-22T10:35:08;9.07;;;6.05;;
38615;SDS011;24370;51.986;4.666;2023-06-22T10:37:35;9.88;;;6.35;;
38615;SDS011;24370;51.986;4.666;2023-06-22T10:40:01;10.20;;;6.57;;
38615;SDS011;24370;51.986;4.666;2023-06-22T10:42:28;8.32;;;6.07;;
38615;SDS011;24370;51.986;4.666;2023-06-22T10:44:53;9.27;;;5.10;;
38615;SDS011;24370;51.986;4.666;2023-06-22T10:47:19;7.20;;;4.80;;
38615;SDS011;24370;51.986;4.666;2023-06-22T10:49:44;8.63;;;5.70;;
38615;SDS011;24370;51.986;4.666;2023-06-22T10:52:10;9.40;;;6.93;;
38615;SDS011;24370;51.986;4.666;2023-06-22T10:54:35;10.68;;;7.40;;
38615;SDS011;24370;51.986;4.666;2023-06-22T10:57:02;9.48;;;6.72;;
38615;SDS011;24370;51.986;4.666;2023-06-22T10:59:28;8.90;;;6.68;;
38615;SDS011;24370;51.986;4.666;2023-06-22T11:01:57;9.70;;;6.97;;
38615;SDS011;24370;51.986;4.666;2023-06-22T11:04:23;11.07;;;7.15;;
38615;SDS011;24370;51.986;4.666;2023-06-22T11:06:49;10.25;;;7.18;;
38615;SDS011;24370;51.986;4.666;2023-06-22T11:09:15;12.43;;;8.75;;
38615;SDS011;24370;51.986;4.666;2023-06-22T11:11:48;12.55;;;7.93;;
38615;SDS011;24370;51.986;4.666;2023-06-22T11:14:14;14.80;;;9.10;;
38615;SDS011;24370;51.986;4.666;2023-06-22T11:16:40;12.63;;;8.82;;
38615;SDS011;24370;51.986;4.666;2023-06-22T11:19:05;12.00;;;8.57;;
38615;SDS011;24370;51.986;4.666;2023-06-22T11:21:31;15.23;;;8.25;;
38615;SDS011;24370;51.986;4.666;2023-06-22T11:23:57;15.18;;;8.30;;
38615;SDS011;24370;51.986;4.666;2023-06-22T11:26:23;14.27;;;9.07;;
38615;SDS011;24370;51.986;4.666;2023-06-22T11:28:50;14.52;;;8.90;;
38615;SDS011;24370;51.986;4.666;2023-06-22T11:31:15;12.65;;;9.23;;
38615;SDS011;24370;51.986;4.666;2023-06-22T11:33:40;12.27;;;9.38;;
38615;SDS011;24370;51.986;4.666;2023-06-22T11:36:06;13.43;;;9.27;;
38615;SDS011;24370;51.986;4.666;2023-06-22T11:38:31;13.07;;;8.23;;
38615;SDS011;24370;51.986;4.666;2023-06-22T11:40:58;15.60;;;9.27;;
38615;SDS011;24370;51.986;4.666;2023-06-22T11:43:23;15.10;;;8.15;;
38615;SDS011;24370;51.986;4.666;2023-06-22T11:45:49;11.88;;;7.68;;
38615;SDS011;24370;51.986;4.666;2023-06-22T11:48:15;13.38;;;8.13;;
38615;SDS011;24370;51.986;4.666;2023-06-22T11:50:41;19.17;;;9.55;;
38615;SDS011;24370;51.986;4.666;2023-06-22T11:53:06;14.93;;;9.68;;
38615;SDS011;24370;51.986;4.666;2023-06-22T11:55:32;16.23;;;10.48;;
38615;SDS011;24370;51.986;4.666;2023-06-22T11:57:57;15.48;;;9.98;;
38615;SDS011;24370;51.986;4.666;2023-06-22T12:00:28;19.00;;;12.13;;
38615;SDS011;24370;51.986;4.666;2023-06-22T12:02:54;19.83;;;11.90;;
38615;SDS011;24370;51.986;4.666;2023-06-22T12:05:21;15.55;;;11.65;;
38615;SDS011;24370;51.986;4.666;2023-06-22T12:07:47;21.80;;;13.18;;
38615;SDS011;24370;51.986;4.666;2023-06-22T12:10:13;23.83;;;14.05;;
38615;SDS011;24370;51.986;4.666;2023-06-22T12:12:38;19.23;;;12.82;;
38615;SDS011;24370;51.986;4.666;2023-06-22T12:15:04;21.80;;;14.80;;
38615;SDS011;24370;51.986;4.666;2023-06-22T12:17:30;23.75;;;15.80;;
38615;SDS011;24370;51.986;4.666;2023-06-22T12:19:56;22.20;;;14.80;;
38615;SDS011;24370;51.986;4.666;2023-06-22T12:22:21;21.85;;;15.15;;
38615;SDS011;24370;51.986;4.666;2023-06-22T12:24:47;21.73;;;14.02;;
38615;SDS011;24370;51.986;4.666;2023-06-22T12:27:12;22.17;;;14.43;;
38615;SDS011;24370;51.986;4.666;2023-06-22T12:29:37;24.60;;;15.15;;
38615;SDS011;24370;51.986;4.666;2023-06-22T12:32:03;22.60;;;15.27;;
38615;SDS011;24370;51.986;4.666;2023-06-22T12:34:29;27.65;;;15.48;;
38615;SDS011;24370;51.986;4.666;2023-06-22T12:36:54;26.25;;;16.00;;
38615;SDS011;24370;51.986;4.666;2023-06-22T12:39:20;26.42;;;16.33;;
38615;SDS011;24370;51.986;4.666;2023-06-22T12:41:45;21.17;;;14.15;;
38615;SDS011;24370;51.986;4.666;2023-06-22T12:44:10;22.40;;;15.13;;
38615;SDS011;24370;51.986;4.666;2023-06-22T12:46:36;21.60;;;14.23;;
38615;SDS011;24370;51.986;4.666;2023-06-22T12:49:03;28.98;;;13.98;;
38615;SDS011;24370;51.986;4.666;2023-06-22T12:51:29;20.70;;;14.68;;
38615;SDS011;24370;51.986;4.666;2023-06-22T12:53:55;21.13;;;13.68;;
38615;SDS011;24370;51.986;4.666;2023-06-22T12:56:21;19.83;;;13.52;;
38615;SDS011;24370;51.986;4.666;2023-06-22T12:58:46;20.05;;;13.75;;
38615;SDS011;24370;51.986;4.666;2023-06-22T13:01:12;22.35;;;14.73;;
38615;SDS011;24370;51.986;4.666;2023-06-22T13:03:37;21.17;;;13.30;;
38615;SDS011;24370;51.986;4.666;2023-06-22T13:06:03;21.30;;;13.95;;
38615;SDS011;24370;51.986;4.666;2023-06-22T13:08:28;19.63;;;13.95;;
38615;SDS011;24370;51.986;4.666;2023-06-22T13:10:54;20.98;;;13.93;;
38615;SDS011;24370;51.986;4.666;2023-06-22T13:13:23;19.67;;;13.40;;
38615;SDS011;24370;51.986;4.666;2023-06-22T13:15:49;20.63;;;13.80;;
38615;SDS011;24370;51.986;4.666;2023-06-22T13:18:15;19.85;;;13.90;;
38615;SDS011;24370;51.986;4.666;2023-06-22T13:20:40;21.02;;;13.50;;
38615;SDS011;24370;51.986;4.666;2023-06-22T13:23:06;18.83;;;13.57;;
38615;SDS011;24370;51.986;4.666;2023-06-22T13:25:32;21.70;;;13.90;;
38615;SDS011;24370;51.986;4.666;2023-06-22T13:27:57;22.63;;;13.35;;
38615;SDS011;24370;51.986;4.666;2023-06-22T13:30:23;18.40;;;12.85;;
38615;SDS011;24370;51.986;4.666;2023-06-22T13:32:48;21.27;;;13.55;;
38615;SDS011;24370;51.986;4.666;2023-06-22T13:35:13;21.70;;;14.00;;
38615;SDS011;24370;51.986;4.666;2023-06-22T13:37:39;19.17;;;13.45;;
38615;SDS011;24370;51.986;4.666;2023-06-22T13:40:05;19.55;;;13.05;;
38615;SDS011;24370;51.986;4.666;2023-06-22T13:42:32;17.38;;;12.43;;
38615;SDS011;24370;51.986;4.666;2023-06-22T13:44:57;19.60;;;13.80;;
38615;SDS011;24370;51.986;4.666;2023-06-22T13:47:23;22.45;;;13.57;;
38615;SDS011;24370;51.986;4.666;2023-06-22T13:49:48;18.85;;;12.75;;
38615;SDS011;24370;51.986;4.666;2023-06-22T13:52:14;24.20;;;14.05;;
38615;SDS011;24370;51.986;4.666;2023-06-22T13:54:39;22.05;;;14.75;;
38615;SDS011;24370;51.986;4.666;2023-06-22T13:57:05;22.63;;;14.43;;
38615;SDS011;24370;51.986;4.666;2023-06-22T13:59:31;24.30;;;15.88;;
38615;SDS011;24370;51.986;4.666;2023-06-22T14:01:56;25.10;;;15.13;;
38615;SDS011;24370;51.986;4.666;2023-06-22T14:04:25;29.38;;;16.35;;
38615;SDS011;24370;51.986;4.666;2023-06-22T14:06:50;20.80;;;14.20;;
38615;SDS011;24370;51.986;4.666;2023-06-22T14:09:16;18.80;;;13.48;;
38615;SDS011;24370;51.986;4.666;2023-06-22T14:11:41;18.77;;;13.63;;
38615;SDS011;24370;51.986;4.666;2023-06-22T14:14:06;18.70;;;13.18;;
38615;SDS011;24370;51.986;4.666;2023-06-22T14:16:32;23.70;;;15.63;;
38615;SDS011;24370;51.986;4.666;2023-06-22T14:18:57;20.17;;;14.68;;
38615;SDS011;24370;51.986;4.666;2023-06-22T14:21:23;18.50;;;13.73;;
38615;SDS011;24370;51.986;4.666;2023-06-22T14:23:48;24.88;;;13.63;;
38615;SDS011;24370;51.986;4.666;2023-06-22T14:26:17;18.35;;;12.65;;
38615;SDS011;24370;51.986;4.666;2023-06-22T14:28:44;18.77;;;12.70;;
38615;SDS011;24370;51.986;4.666;2023-06-22T14:31:13;16.60;;;11.70;;
38615;SDS011;24370;51.986;4.666;2023-06-22T14:33:46;15.35;;;10.60;;
38615;SDS011;24370;51.986;4.666;2023-06-22T14:36:13;13.68;;;9.55;;